This is the latest recevied weather packets stored in our database for station/object KM4CNW. If no packets are shown the sender has not sent any weather packets the latest 10 day(s).
| Time | Temp. | Humidity | Pressure | Rain* | Wind** | Luminosity | Snow |
|---|---|---|---|---|---|---|---|
| 1777648815 | 15° C | 50% | 1010.1 hPa | 0 mm | - | 942 W/m² | - |
| 1777648512 | 15° C | 50% | 1010.3 hPa | 0 mm | - | 340 W/m² | - |
| 1777648209 | 15° C | 48% | 1010.2 hPa | 0 mm | - | 620 W/m² | - |
| 1777647903 | 14.44° C | 50% | 1010 hPa | 0 mm | - | 465 W/m² | - |
| 1777647601 | 15° C | 48% | 1010.3 hPa | 0 mm | - | 291 W/m² | - |
| 1777647297 | 14.44° C | 51% | 1010.2 hPa | 0 mm | - | 312 W/m² | - |
| 1777646995 | 14.44° C | 51% | 1010.2 hPa | 0 mm | - | 371 W/m² | - |
| 1777646690 | 13.89° C | 51% | 1010.4 hPa | 0 mm | - | 363 W/m² | - |
| 1777646387 | 14.44° C | 50% | 1010.4 hPa | 0 mm | - | 244 W/m² | - |
| 1777646083 | 14.44° C | 53% | 1010.4 hPa | 0 mm | - | 253 W/m² | - |
| 1777645779 | 13.89° C | 53% | 1010.3 hPa | 0 mm | - | 274 W/m² | - |
| 1777645477 | 13.89° C | 51% | 1010.4 hPa | 0 mm | - | 298 W/m² | - |
| 1777645173 | 13.89° C | 53% | 1010.1 hPa | 0 mm | - | 234 W/m² | - |
| 1777644869 | 13.89° C | 52% | 1010.3 hPa | 0 mm | - | 278 W/m² | - |
| 1777644567 | 13.33° C | 55% | 1010.2 hPa | 0 mm | - | 368 W/m² | - |
| 1777644262 | 13.33° C | 54% | 1010.2 hPa | 0 mm | - | 200 W/m² | - |
| 1777643959 | 13.33° C | 55% | 1010.1 hPa | 0 mm | - | 184 W/m² | - |
| 1777643656 | 13.33° C | 56% | 1009.9 hPa | 0 mm | - | 141 W/m² | - |
| 1777643354 | 12.78° C | 56% | 1010 hPa | 0 mm | - | 136 W/m² | - |
| 1777643050 | 12.78° C | 56% | 1010.1 hPa | 0 mm | - | 186 W/m² | - |
| 1777642746 | 12.22° C | 60% | 1010.1 hPa | 0 mm | - | 172 W/m² | - |
| 1777642444 | 12.22° C | 59% | 1010.1 hPa | 0 mm | - | 159 W/m² | - |
| 1777642140 | 12.22° C | 58% | 1010.3 hPa | 0 mm | - | 103 W/m² | - |
| 1777641836 | 12.22° C | 58% | 1010.1 hPa | 0 mm | - | 85 W/m² | - |
| 1777641532 | 11.67° C | 58% | 1010 hPa | 0 mm | - | 82 W/m² | - |
* Rain latest hour (hover to see other rain measurements)
** Current wind speed in m/s (hover to see current wind gust speed)